LEPP/PNA METAR and TAF weather

Enter ICAO airport designator
Station Type Date Time Source
LEPP METAR 2022/11/27 07:30 UTC NOAA

LEPP 270730Z 16003KT 9999 BCFG FEW001 01/01 Q1025


Station Type Date Time Source
LEPP Decoded METAR 2022/11/27 07:30 UTC NOAA

Pamplona / Noain, Spain (LEPP) 42-46N 001-38W 453M
Nov 27, 2022 - 02:30 AM EST / 2022.11.27 0730 UTC
Wind: from the SSE (160 degrees) at 3 MPH (3 KT):0
Visibility: greater than 7 mile(s):0
Sky conditions: mostly clear
Weather: patches of fog
Temperature: 33 F (1 C)
Dew Point: 33 F (1 C)
Relative Humidity: 100%
Pressure (altimeter): 30.27 in. Hg (1025 hPa)
ob: LEPP 270730Z 16003KT 9999 BCFG FEW001 01/01 Q1025
cycle: 7

Station Type Date Time Source
LEPP TAF 2022/11/27 05:03 UTC NOAA

TAF
AMD LEPP 270556Z 2705/2803 17007KT 9999 FEW040 TX12/2714Z TN01/2707Z PROB40
TEMPO 2705/2709 3000 BR BKN005 BKN010 PROB40
TEMPO 2705/2708 0800 BCFG BKN002 PROB40
TEMPO 2720/2803 29010KT 3000 SHRA BKN010 SCT030TCU

Example: see airport list